createdAt,value
2023-05-05T00:01:07.345Z,13.71
2023-05-05T00:03:39.548Z,13.68
2023-05-05T00:06:08.300Z,13.64
2023-05-05T00:08:36.622Z,13.59
2023-05-05T00:11:06.314Z,13.55
2023-05-05T00:13:34.646Z,13.52
2023-05-05T00:16:04.784Z,13.50
2023-05-05T00:18:33.940Z,13.47
2023-05-05T00:21:02.399Z,13.44
2023-05-05T00:23:30.703Z,13.41
2023-05-05T00:26:01.690Z,13.38
2023-05-05T00:28:31.812Z,13.35
2023-05-05T00:31:00.222Z,13.32
2023-05-05T00:33:28.662Z,13.29
2023-05-05T00:35:56.969Z,13.25
2023-05-05T00:38:25.304Z,13.23
2023-05-05T00:40:53.670Z,13.19
2023-05-05T00:43:21.978Z,13.15
2023-05-05T00:45:57.279Z,13.12
2023-05-05T00:48:25.877Z,13.09
2023-05-05T00:50:54.443Z,13.08
2023-05-05T00:53:22.884Z,13.05
2023-05-05T00:55:52.083Z,13.02
2023-05-05T00:58:20.663Z,13.00
2023-05-05T01:00:48.977Z,12.97
2023-05-05T01:03:18.726Z,12.94
2023-05-05T01:05:58.292Z,12.92
2023-05-05T01:08:47.919Z,12.89
2023-05-05T01:11:27.308Z,12.88
2023-05-05T01:14:09.553Z,12.88
2023-05-05T01:16:42.849Z,12.84
2023-05-05T01:19:42.002Z,12.83
2023-05-05T01:22:15.176Z,12.82
2023-05-05T01:25:05.238Z,12.79
2023-05-05T01:27:56.772Z,12.77
2023-05-05T01:30:57.255Z,12.74
2023-05-05T01:33:34.557Z,12.70
2023-05-05T01:36:07.895Z,12.67
2023-05-05T01:38:41.808Z,12.64
2023-05-05T01:41:17.720Z,12.61
2023-05-05T01:43:50.361Z,12.59
2023-05-05T01:46:20.370Z,12.57
2023-05-05T01:48:50.492Z,12.56
2023-05-05T01:51:20.687Z,12.52
2023-05-05T01:53:51.325Z,12.50
2023-05-05T01:56:21.751Z,12.48
2023-05-05T01:58:50.820Z,12.46
2023-05-05T02:01:22.686Z,12.45
2023-05-05T02:03:53.234Z,12.42
2023-05-05T02:06:23.157Z,12.39
2023-05-05T02:08:55.981Z,12.37
2023-05-05T02:11:26.193Z,12.29
2023-05-05T02:13:55.832Z,12.30
2023-05-05T02:16:25.148Z,12.27
2023-05-05T02:18:55.706Z,12.23
2023-05-05T02:21:23.978Z,12.21
2023-05-05T02:23:53.630Z,12.16
2023-05-05T02:26:23.975Z,12.15
2023-05-05T02:29:03.246Z,12.12
2023-05-05T02:31:33.903Z,12.10
2023-05-05T02:34:06.671Z,12.08
2023-05-05T02:36:39.578Z,12.05
2023-05-05T02:39:14.902Z,12.03
2023-05-05T02:41:47.714Z,11.97
2023-05-05T02:44:16.994Z,11.96
2023-05-05T02:46:46.428Z,11.95
2023-05-05T02:49:16.659Z,11.92
2023-05-05T02:51:45.066Z,11.90
2023-05-05T02:54:13.492Z,11.90
2023-05-05T02:56:45.768Z,11.86
2023-05-05T02:59:19.869Z,11.85
2023-05-05T03:02:00.462Z,11.83
2023-05-05T03:04:37.971Z,11.81
2023-05-05T03:07:12.045Z,11.79
2023-05-05T03:09:47.699Z,11.77
2023-05-05T03:12:22.828Z,11.76
2023-05-05T03:14:55.009Z,11.75
2023-05-05T03:17:31.707Z,11.73
2023-05-05T03:20:03.615Z,11.69
2023-05-05T03:22:32.503Z,11.69
2023-05-05T03:25:00.765Z,11.68
2023-05-05T03:27:29.289Z,11.65
2023-05-05T03:29:57.899Z,11.65
2023-05-05T03:32:27.204Z,11.63
2023-05-05T03:34:55.653Z,11.62
2023-05-05T03:37:25.434Z,11.61
2023-05-05T03:39:53.704Z,11.60
2023-05-05T03:42:22.069Z,11.57
2023-05-05T03:44:50.365Z,11.55
2023-05-05T03:47:18.687Z,11.54
2023-05-05T03:49:46.970Z,11.53
2023-05-05T03:52:15.347Z,11.49
2023-05-05T03:54:48.099Z,11.46
2023-05-05T03:57:16.706Z,11.45
2023-05-05T03:59:45.021Z,11.43
2023-05-05T04:02:15.583Z,11.44
2023-05-05T04:04:45.319Z,11.43
2023-05-05T04:07:13.666Z,11.42
2023-05-05T04:09:46.432Z,11.41
2023-05-05T04:12:14.972Z,11.42
2023-05-05T04:14:43.249Z,11.43
2023-05-05T04:17:11.576Z,11.40
2023-05-05T04:19:42.229Z,11.39
2023-05-05T04:22:10.481Z,11.39
2023-05-05T04:24:38.826Z,11.39
2023-05-05T04:27:08.482Z,11.37
2023-05-05T04:29:36.804Z,11.35
2023-05-05T04:32:05.281Z,11.31
2023-05-05T04:34:33.590Z,11.32
2023-05-05T04:37:01.871Z,11.31
2023-05-05T04:39:31.425Z,11.32
2023-05-05T04:41:59.713Z,11.32
2023-05-05T04:44:29.510Z,11.32
2023-05-05T04:46:57.873Z,11.33
2023-05-05T04:49:26.191Z,11.35
2023-05-05T04:51:54.540Z,11.36
2023-05-05T04:54:28.079Z,11.40
2023-05-05T04:56:56.657Z,11.43
2023-05-05T04:59:24.922Z,11.47
2023-05-05T05:01:54.735Z,11.50
2023-05-05T05:04:29.998Z,11.55
2023-05-05T05:07:01.393Z,11.60
2023-05-05T05:09:29.714Z,11.66
2023-05-05T05:12:02.861Z,11.71
2023-05-05T05:14:37.052Z,11.77
2023-05-05T05:17:06.931Z,11.82
2023-05-05T05:19:35.466Z,11.87
2023-05-05T05:22:03.838Z,11.94
2023-05-05T05:24:32.304Z,12.00
2023-05-05T05:27:01.345Z,12.06
2023-05-05T05:29:32.140Z,12.14
2023-05-05T05:32:00.524Z,12.23
2023-05-05T05:34:30.282Z,12.32
2023-05-05T05:36:58.574Z,12.39
2023-05-05T05:39:26.968Z,12.48
2023-05-05T05:41:55.437Z,12.57
2023-05-05T05:44:23.880Z,12.67
2023-05-05T05:46:52.173Z,12.77
2023-05-05T05:49:23.461Z,12.85
2023-05-05T05:51:53.171Z,12.97
2023-05-05T05:54:21.484Z,13.07
2023-05-05T05:56:49.794Z,13.18
2023-05-05T05:59:29.844Z,13.32
2023-05-05T06:01:58.580Z,13.42
2023-05-05T06:04:26.950Z,13.57
2023-05-05T06:06:57.608Z,13.71
2023-05-05T06:09:26.309Z,13.85
2023-05-05T06:11:54.581Z,13.99
2023-05-05T06:14:22.912Z,14.12
2023-05-05T06:16:52.341Z,14.28
2023-05-05T06:19:23.767Z,14.42
2023-05-05T06:21:52.120Z,14.58
2023-05-05T06:24:22.504Z,14.73
2023-05-05T06:26:50.822Z,14.89
2023-05-05T06:29:19.239Z,15.03
2023-05-05T06:31:47.584Z,15.15
2023-05-05T06:34:15.879Z,15.32
2023-05-05T06:36:44.213Z,15.46
2023-05-05T06:39:14.017Z,15.62
2023-05-05T06:41:45.526Z,15.76
2023-05-05T06:44:13.822Z,15.91
2023-05-05T06:46:43.610Z,16.08
2023-05-05T06:49:12.344Z,16.24
2023-05-05T06:51:42.738Z,16.38
2023-05-05T06:54:11.324Z,16.52
2023-05-05T06:56:39.692Z,16.65
2023-05-05T06:59:09.648Z,16.78
2023-05-05T07:01:38.231Z,16.92
2023-05-05T07:04:07.183Z,17.09
2023-05-05T07:06:35.624Z,17.22
2023-05-05T07:09:04.477Z,17.42
2023-05-05T07:11:32.757Z,17.55
2023-05-05T07:14:01.147Z,17.69
2023-05-05T07:16:30.890Z,17.84
2023-05-05T07:19:00.831Z,17.99
2023-05-05T07:21:29.151Z,18.12
2023-05-05T07:23:57.465Z,18.29
2023-05-05T07:26:26.184Z,18.47
2023-05-05T07:28:55.551Z,18.65
2023-05-05T07:31:23.940Z,18.78
2023-05-05T07:33:53.760Z,18.88
2023-05-05T07:36:22.324Z,18.94
2023-05-05T07:38:50.699Z,19.06
2023-05-05T07:41:19.301Z,19.17
2023-05-05T07:43:50.625Z,19.28
2023-05-05T07:46:19.552Z,19.37
2023-05-05T07:48:47.988Z,19.47
2023-05-05T07:53:46.032Z,19.75
2023-05-05T07:56:14.377Z,19.87
2023-05-05T07:58:42.747Z,19.99
2023-05-05T08:01:12.814Z,20.13
2023-05-05T08:03:41.395Z,20.31
2023-05-05T08:06:10.747Z,20.45
2023-05-05T08:08:40.463Z,20.57
2023-05-05T08:11:08.830Z,20.72
2023-05-05T08:13:37.134Z,20.88
2023-05-05T08:16:06.133Z,21.00
2023-05-05T08:18:37.476Z,21.13
2023-05-05T08:21:06.286Z,21.29
2023-05-05T08:23:34.802Z,21.43
2023-05-05T08:26:06.224Z,21.58
2023-05-05T08:28:36.414Z,21.73
2023-05-05T08:31:05.585Z,21.89
2023-05-05T08:33:33.971Z,22.04
2023-05-05T08:36:02.425Z,22.17
2023-05-05T08:38:30.721Z,22.31
2023-05-05T16:42:31.697Z,28.19
2023-05-05T16:45:00.214Z,28.17
2023-05-05T16:47:28.653Z,28.14
2023-05-05T16:49:57.259Z,28.09
2023-05-05T16:52:25.658Z,28.06
2023-05-05T16:54:55.776Z,28.01
2023-05-05T16:57:24.510Z,27.95
2023-05-05T16:59:57.091Z,27.89
2023-05-05T17:02:25.635Z,27.85
2023-05-05T17:04:56.179Z,27.79
2023-05-05T17:07:24.664Z,27.74
2023-05-05T17:09:53.219Z,27.70
2023-05-05T17:12:21.604Z,27.66
2023-05-05T17:14:49.993Z,27.64
2023-05-05T17:17:19.776Z,27.59
2023-05-05T17:19:48.156Z,27.57
2023-05-05T17:22:16.525Z,27.53
2023-05-05T17:24:44.935Z,27.50
2023-05-05T17:27:13.415Z,27.45
2023-05-05T17:29:41.775Z,27.42
2023-05-05T17:32:10.481Z,27.36
2023-05-05T17:34:41.146Z,27.30
2023-05-05T17:37:10.130Z,27.27
2023-05-05T17:39:38.489Z,27.21
2023-05-05T17:42:07.067Z,27.16
2023-05-05T17:44:35.432Z,27.10
2023-05-05T17:47:04.046Z,27.05
2023-05-05T17:49:32.469Z,26.97
2023-05-05T17:52:02.187Z,26.92
2023-05-05T17:54:30.721Z,26.85
2023-05-05T17:56:59.661Z,26.79
2023-05-05T17:59:28.138Z,26.71
2023-05-05T18:01:56.493Z,26.63
2023-05-05T18:04:30.590Z,26.56
2023-05-05T18:06:58.958Z,26.46
2023-05-05T18:09:28.656Z,26.38
2023-05-05T18:11:57.112Z,26.28
2023-05-05T18:14:25.497Z,26.21
2023-05-05T18:16:54.065Z,26.13
2023-05-05T18:19:24.378Z,26.05
2023-05-05T18:21:55.075Z,25.96
2023-05-05T18:24:33.360Z,25.87
2023-05-05T18:27:01.731Z,25.79
2023-05-05T18:29:30.096Z,25.71
2023-05-05T18:31:58.567Z,25.62
2023-05-05T18:34:27.480Z,25.55
2023-05-05T18:36:57.090Z,25.48
2023-05-05T18:39:25.785Z,25.41
2023-05-05T18:41:55.785Z,25.33
2023-05-05T18:44:29.218Z,25.26
2023-05-05T18:46:57.644Z,25.18
2023-05-05T18:49:26.775Z,25.12
2023-05-05T18:51:56.896Z,25.03
2023-05-05T18:54:25.793Z,24.97
2023-05-05T18:56:55.907Z,24.90
2023-05-05T18:59:25.492Z,24.82
2023-05-05T19:01:53.821Z,24.74
2023-05-05T19:04:30.785Z,24.67
2023-05-05T19:07:00.108Z,24.59
2023-05-05T19:09:28.934Z,24.52
2023-05-05T19:11:58.673Z,24.47
2023-05-05T19:14:27.250Z,24.40
2023-05-05T19:16:56.231Z,24.34
2023-05-05T19:19:35.582Z,24.27
2023-05-05T19:22:04.214Z,24.22
2023-05-05T19:24:32.593Z,24.17
2023-05-05T19:27:03.350Z,24.09
2023-05-05T19:29:32.203Z,24.04
2023-05-05T19:32:00.640Z,23.97
2023-05-05T19:34:29.087Z,23.92
2023-05-05T19:36:57.442Z,23.85
2023-05-05T19:39:26.269Z,23.78
2023-05-05T19:41:54.640Z,23.74
2023-05-05T19:44:32.073Z,23.69
2023-05-05T19:47:00.502Z,23.66
2023-05-05T19:49:32.016Z,23.60
2023-05-05T19:52:00.548Z,23.57
2023-05-05T19:54:29.497Z,23.51
2023-05-05T19:56:58.051Z,23.47
2023-05-05T19:59:28.683Z,23.41
2023-05-05T20:01:58.522Z,23.36
2023-05-05T20:04:26.887Z,23.26
2023-05-05T20:06:55.310Z,23.19
2023-05-05T20:09:23.707Z,23.11
2023-05-05T20:11:52.091Z,23.03
2023-05-05T20:14:22.669Z,22.94
2023-05-05T20:16:50.998Z,22.86
2023-05-05T20:19:21.004Z,22.78
2023-05-05T20:21:49.291Z,22.72
2023-05-05T20:24:24.943Z,22.64
2023-05-05T20:26:53.248Z,22.57
2023-05-05T20:29:22.171Z,22.46
2023-05-05T20:31:50.560Z,22.40
2023-05-05T20:34:20.397Z,22.31
2023-05-05T20:36:48.723Z,22.25
2023-05-05T20:39:17.325Z,22.17
2023-05-05T20:41:46.291Z,22.10
2023-05-05T20:44:14.685Z,22.03
2023-05-05T20:46:43.234Z,21.91
2023-05-05T20:49:15.292Z,21.83
2023-05-05T20:51:45.309Z,21.70
2023-05-05T20:54:13.609Z,21.65
2023-05-05T20:56:41.880Z,21.54
2023-05-05T20:59:10.253Z,21.46
2023-05-05T21:01:38.488Z,21.39
2023-05-05T21:04:07.160Z,21.32
2023-05-05T21:06:35.531Z,21.22
2023-05-05T21:09:06.784Z,21.12
2023-05-05T21:11:35.235Z,21.07
2023-05-05T21:14:09.419Z,21.01
2023-05-05T21:16:37.684Z,20.95
2023-05-05T21:19:06.017Z,20.88
2023-05-05T21:21:34.466Z,20.82
2023-05-05T21:24:05.595Z,20.76
2023-05-05T21:26:36.104Z,20.69
2023-05-05T21:29:04.441Z,20.63
2023-05-05T21:31:32.930Z,20.58
2023-05-05T21:34:01.244Z,20.54
2023-05-05T21:36:30.123Z,20.49
2023-05-05T21:39:00.259Z,20.44
2023-05-05T21:41:30.157Z,20.40
2023-05-05T21:43:59.477Z,20.36
2023-05-05T21:46:27.895Z,20.33
2023-05-05T21:48:56.342Z,20.29
2023-05-05T21:51:24.653Z,20.26
2023-05-05T21:53:52.924Z,20.21
2023-05-05T21:56:21.251Z,20.19
2023-05-05T21:58:50.945Z,20.15
2023-05-05T22:01:19.225Z,20.11
2023-05-05T22:03:47.872Z,20.08
2023-05-05T22:06:18.521Z,20.06
2023-05-05T22:08:49.708Z,20.02
2023-05-05T22:11:21.375Z,19.99
2023-05-05T22:13:51.937Z,19.94
2023-05-05T22:16:20.289Z,19.89
2023-05-05T22:18:51.377Z,19.87
2023-05-05T22:21:19.783Z,19.86
2023-05-05T22:23:48.137Z,19.82
2023-05-05T22:26:19.525Z,19.82
2023-05-05T22:28:47.865Z,19.81
2023-05-05T22:31:19.537Z,19.79
2023-05-05T22:33:49.827Z,19.77
2023-05-05T22:36:23.653Z,19.73
2023-05-05T22:38:51.968Z,19.69
2023-05-05T22:41:20.480Z,19.68
2023-05-05T22:43:49.344Z,19.65
2023-05-05T22:46:18.988Z,19.54
2023-05-05T22:48:47.461Z,19.52
2023-05-05T22:51:15.783Z,19.47
2023-05-05T22:53:44.115Z,19.44
2023-05-05T22:56:12.419Z,19.41
2023-05-05T22:58:40.745Z,19.41
2023-05-05T23:01:09.074Z,19.38
2023-05-05T23:03:38.933Z,19.35
2023-05-05T23:06:07.482Z,19.32
2023-05-05T23:08:35.900Z,19.30
2023-05-05T23:11:04.277Z,19.29
2023-05-05T23:13:32.739Z,19.27
2023-05-05T23:16:01.089Z,19.27
2023-05-05T23:18:29.465Z,19.24
2023-05-05T23:20:59.259Z,19.23
2023-05-05T23:23:27.569Z,19.24
2023-05-05T23:25:56.088Z,19.21
2023-05-05T23:28:24.456Z,19.19
2023-05-05T23:30:52.980Z,19.17
2023-05-05T23:33:21.381Z,19.16
2023-05-05T23:35:49.798Z,19.14
2023-05-05T23:38:19.462Z,19.11
2023-05-05T23:40:47.777Z,19.10
2023-05-05T23:43:16.047Z,19.09
2023-05-05T23:45:44.345Z,19.07
2023-05-05T23:48:13.585Z,19.06
2023-05-05T23:50:41.833Z,19.03
2023-05-05T23:53:10.581Z,19.02
2023-05-05T23:55:40.231Z,19.01
2023-05-05T23:58:08.551Z,18.97
